sensor_id;sensor_type;location;lat;lon;timestamp;temperature;humidity
2749;DHT22;1382;52.142;11.618;2022-09-21T00:00:57;12.90;47.80
2749;DHT22;1382;52.142;11.618;2022-09-21T00:03:29;13.00;47.90
2749;DHT22;1382;52.142;11.618;2022-09-21T00:06:01;12.90;47.90
2749;DHT22;1382;52.142;11.618;2022-09-21T00:08:28;12.90;47.90
2749;DHT22;1382;52.142;11.618;2022-09-21T00:10:56;12.90;48.00
2749;DHT22;1382;52.142;11.618;2022-09-21T00:13:22;12.80;47.90
2749;DHT22;1382;52.142;11.618;2022-09-21T00:15:49;12.80;47.90
2749;DHT22;1382;52.142;11.618;2022-09-21T00:18:16;12.80;47.90
2749;DHT22;1382;52.142;11.618;2022-09-21T00:20:43;12.80;47.90
2749;DHT22;1382;52.142;11.618;2022-09-21T00:23:09;12.70;47.80
2749;DHT22;1382;52.142;11.618;2022-09-21T00:25:36;12.70;47.80
2749;DHT22;1382;52.142;11.618;2022-09-21T00:28:04;12.70;47.90
2749;DHT22;1382;52.142;11.618;2022-09-21T00:30:31;12.70;48.00
2749;DHT22;1382;52.142;11.618;2022-09-21T00:32:58;12.70;48.00
2749;DHT22;1382;52.142;11.618;2022-09-21T00:35:25;12.60;47.90
2749;DHT22;1382;52.142;11.618;2022-09-21T00:37:51;12.60;48.00
2749;DHT22;1382;52.142;11.618;2022-09-21T00:40:18;12.60;48.00
2749;DHT22;1382;52.142;11.618;2022-09-21T00:42:48;12.60;48.00
2749;DHT22;1382;52.142;11.618;2022-09-21T00:45:16;12.60;48.60
2749;DHT22;1382;52.142;11.618;2022-09-21T00:47:44;12.50;47.90
2749;DHT22;1382;52.142;11.618;2022-09-21T00:50:15;12.50;47.90
2749;DHT22;1382;52.142;11.618;2022-09-21T00:52:46;12.50;47.90
2749;DHT22;1382;52.142;11.618;2022-09-21T00:55:17;12.50;48.00
2749;DHT22;1382;52.142;11.618;2022-09-21T00:57:47;12.40;47.90
2749;DHT22;1382;52.142;11.618;2022-09-21T01:00:17;12.40;47.90
2749;DHT22;1382;52.142;11.618;2022-09-21T01:02:44;12.40;47.90
2749;DHT22;1382;52.142;11.618;2022-09-21T01:05:11;12.40;47.90
2749;DHT22;1382;52.142;11.618;2022-09-21T01:07:42;12.30;47.90
2749;DHT22;1382;52.142;11.618;2022-09-21T01:10:11;12.30;48.00
2749;DHT22;1382;52.142;11.618;2022-09-21T01:12:49;12.30;48.10
2749;DHT22;1382;52.142;11.618;2022-09-21T01:15:28;12.30;48.00
2749;DHT22;1382;52.142;11.618;2022-09-21T01:18:04;12.20;47.90
2749;DHT22;1382;52.142;11.618;2022-09-21T01:23:41;12.20;47.90
2749;DHT22;1382;52.142;11.618;2022-09-21T01:26:15;12.10;47.90
2749;DHT22;1382;52.142;11.618;2022-09-21T01:29:15;12.10;47.90
2749;DHT22;1382;52.142;11.618;2022-09-21T01:31:48;12.10;47.80
2749;DHT22;1382;52.142;11.618;2022-09-21T01:34:22;12.00;47.90
2749;DHT22;1382;52.142;11.618;2022-09-21T01:36:52;12.00;47.90
2749;DHT22;1382;52.142;11.618;2022-09-21T01:39:20;12.00;47.90
2749;DHT22;1382;52.142;11.618;2022-09-21T01:41:49;12.00;47.90
2749;DHT22;1382;52.142;11.618;2022-09-21T01:44:21;12.00;47.90
2749;DHT22;1382;52.142;11.618;2022-09-21T01:46:49;12.00;48.60
2749;DHT22;1382;52.142;11.618;2022-09-21T01:49:20;11.90;47.80
2749;DHT22;1382;52.142;11.618;2022-09-21T01:51:52;11.90;47.80
2749;DHT22;1382;52.142;11.618;2022-09-21T01:54:24;11.90;47.80
2749;DHT22;1382;52.142;11.618;2022-09-21T01:56:56;11.80;47.70
2749;DHT22;1382;52.142;11.618;2022-09-21T01:59:31;11.80;47.80
2749;DHT22;1382;52.142;11.618;2022-09-21T02:02:05;11.80;47.70
2749;DHT22;1382;52.142;11.618;2022-09-21T02:04:34;11.80;47.80
2749;DHT22;1382;52.142;11.618;2022-09-21T02:07:01;11.80;47.70
2749;DHT22;1382;52.142;11.618;2022-09-21T02:09:28;11.80;47.70
2749;DHT22;1382;52.142;11.618;2022-09-21T02:11:55;11.80;47.70
2749;DHT22;1382;52.142;11.618;2022-09-21T02:14:23;11.70;47.70
2749;DHT22;1382;52.142;11.618;2022-09-21T02:16:55;11.70;47.70
2749;DHT22;1382;52.142;11.618;2022-09-21T02:19:30;11.70;47.60
2749;DHT22;1382;52.142;11.618;2022-09-21T02:22:02;11.70;47.60
2749;DHT22;1382;52.142;11.618;2022-09-21T02:24:37;11.60;47.60
2749;DHT22;1382;52.142;11.618;2022-09-21T02:27:13;11.60;47.60
2749;DHT22;1382;52.142;11.618;2022-09-21T02:29:47;11.60;47.60
2749;DHT22;1382;52.142;11.618;2022-09-21T02:32:24;11.50;47.70
2749;DHT22;1382;52.142;11.618;2022-09-21T02:34:59;11.50;47.80
2749;DHT22;1382;52.142;11.618;2022-09-21T02:37:33;11.50;47.70
2749;DHT22;1382;52.142;11.618;2022-09-21T02:40:03;11.50;47.80
2749;DHT22;1382;52.142;11.618;2022-09-21T02:42:35;11.50;47.70
2749;DHT22;1382;52.142;11.618;2022-09-21T02:45:07;11.40;47.60
2749;DHT22;1382;52.142;11.618;2022-09-21T02:47:44;11.40;47.70
2749;DHT22;1382;52.142;11.618;2022-09-21T02:50:16;11.40;47.80
2749;DHT22;1382;52.142;11.618;2022-09-21T02:52:44;11.40;47.80
2749;DHT22;1382;52.142;11.618;2022-09-21T02:55:12;11.30;47.70
2749;DHT22;1382;52.142;11.618;2022-09-21T02:57:41;11.30;47.80
2749;DHT22;1382;52.142;11.618;2022-09-21T03:00:10;11.30;47.80
2749;DHT22;1382;52.142;11.618;2022-09-21T03:02:39;11.40;47.80
2749;DHT22;1382;52.142;11.618;2022-09-21T03:05:08;11.30;47.70
2749;DHT22;1382;52.142;11.618;2022-09-21T03:07:35;11.30;47.80
2749;DHT22;1382;52.142;11.618;2022-09-21T03:10:02;11.30;47.80
2749;DHT22;1382;52.142;11.618;2022-09-21T03:12:29;11.30;47.80
2749;DHT22;1382;52.142;11.618;2022-09-21T03:14:56;11.20;48.50
2749;DHT22;1382;52.142;11.618;2022-09-21T03:17:23;11.20;47.80
2749;DHT22;1382;52.142;11.618;2022-09-21T03:19:51;11.20;47.90
2749;DHT22;1382;52.142;11.618;2022-09-21T03:22:18;11.20;48.10
2749;DHT22;1382;52.142;11.618;2022-09-21T03:24:44;11.20;48.20
2749;DHT22;1382;52.142;11.618;2022-09-21T03:27:11;11.20;48.20
2749;DHT22;1382;52.142;11.618;2022-09-21T03:29:38;11.20;48.20
2749;DHT22;1382;52.142;11.618;2022-09-21T03:32:05;11.20;48.10
2749;DHT22;1382;52.142;11.618;2022-09-21T03:34:32;11.10;47.90
2749;DHT22;1382;52.142;11.618;2022-09-21T03:37:01;11.10;47.80
2749;DHT22;1382;52.142;11.618;2022-09-21T03:39:28;11.10;47.80
2749;DHT22;1382;52.142;11.618;2022-09-21T03:41:55;11.10;47.90
2749;DHT22;1382;52.142;11.618;2022-09-21T03:44:22;11.10;47.90
2749;DHT22;1382;52.142;11.618;2022-09-21T03:46:49;11.10;47.90
2749;DHT22;1382;52.142;11.618;2022-09-21T03:49:16;11.10;47.90
2749;DHT22;1382;52.142;11.618;2022-09-21T03:51:43;11.10;47.80
2749;DHT22;1382;52.142;11.618;2022-09-21T03:54:12;11.00;47.70
2749;DHT22;1382;52.142;11.618;2022-09-21T03:56:38;11.10;47.90
2749;DHT22;1382;52.142;11.618;2022-09-21T03:59:05;11.00;47.70
2749;DHT22;1382;52.142;11.618;2022-09-21T04:01:38;11.00;47.60
2749;DHT22;1382;52.142;11.618;2022-09-21T04:04:05;11.00;47.70
2749;DHT22;1382;52.142;11.618;2022-09-21T04:06:32;10.90;47.50
2749;DHT22;1382;52.142;11.618;2022-09-21T04:08:59;11.00;47.70
2749;DHT22;1382;52.142;11.618;2022-09-21T04:11:27;10.90;47.70
2749;DHT22;1382;52.142;11.618;2022-09-21T04:13:54;10.90;47.60
2749;DHT22;1382;52.142;11.618;2022-09-21T04:16:22;10.90;47.60
2749;DHT22;1382;52.142;11.618;2022-09-21T04:18:49;10.90;47.70
2749;DHT22;1382;52.142;11.618;2022-09-21T04:21:16;10.90;47.60
2749;DHT22;1382;52.142;11.618;2022-09-21T04:23:43;10.90;47.60
2749;DHT22;1382;52.142;11.618;2022-09-21T04:26:19;10.80;47.50
2749;DHT22;1382;52.142;11.618;2022-09-21T04:28:48;10.80;47.50
2749;DHT22;1382;52.142;11.618;2022-09-21T04:31:14;10.80;47.60
2749;DHT22;1382;52.142;11.618;2022-09-21T04:33:41;10.90;47.70
2749;DHT22;1382;52.142;11.618;2022-09-21T04:36:08;10.80;47.40
2749;DHT22;1382;52.142;11.618;2022-09-21T04:38:35;10.70;47.20
2749;DHT22;1382;52.142;11.618;2022-09-21T04:41:02;10.70;47.30
2749;DHT22;1382;52.142;11.618;2022-09-21T04:43:29;10.70;47.40
2749;DHT22;1382;52.142;11.618;2022-09-21T04:45:57;10.70;47.50
2749;DHT22;1382;52.142;11.618;2022-09-21T04:48:24;10.80;47.60
2749;DHT22;1382;52.142;11.618;2022-09-21T04:50:51;10.60;47.50
2749;DHT22;1382;52.142;11.618;2022-09-21T04:53:18;10.60;47.60
2749;DHT22;1382;52.142;11.618;2022-09-21T04:55:45;10.60;47.60
2749;DHT22;1382;52.142;11.618;2022-09-21T04:58:12;10.60;47.60
2749;DHT22;1382;52.142;11.618;2022-09-21T05:00:39;10.60;47.60
2749;DHT22;1382;52.142;11.618;2022-09-21T05:03:07;10.60;47.60
2749;DHT22;1382;52.142;11.618;2022-09-21T05:05:34;10.60;47.60
2749;DHT22;1382;52.142;11.618;2022-09-21T05:08:01;10.50;47.40
2749;DHT22;1382;52.142;11.618;2022-09-21T05:10:28;10.60;47.50
2749;DHT22;1382;52.142;11.618;2022-09-21T05:12:54;10.50;47.50
2749;DHT22;1382;52.142;11.618;2022-09-21T05:15:21;10.50;47.40
2749;DHT22;1382;52.142;11.618;2022-09-21T05:17:48;10.60;47.60
2749;DHT22;1382;52.142;11.618;2022-09-21T05:20:16;10.50;47.60
2749;DHT22;1382;52.142;11.618;2022-09-21T05:22:43;10.60;47.70
2749;DHT22;1382;52.142;11.618;2022-09-21T05:25:10;10.40;47.50
2749;DHT22;1382;52.142;11.618;2022-09-21T05:27:37;10.40;47.60
2749;DHT22;1382;52.142;11.618;2022-09-21T05:30:04;10.40;47.60
2749;DHT22;1382;52.142;11.618;2022-09-21T05:32:41;10.40;47.80
2749;DHT22;1382;52.142;11.618;2022-09-21T05:35:17;10.40;48.10
2749;DHT22;1382;52.142;11.618;2022-09-21T05:37:51;10.40;48.30
2749;DHT22;1382;52.142;11.618;2022-09-21T05:40:20;10.40;48.80
2749;DHT22;1382;52.142;11.618;2022-09-21T05:42:48;10.40;48.70
2749;DHT22;1382;52.142;11.618;2022-09-21T05:45:16;10.40;48.90
2749;DHT22;1382;52.142;11.618;2022-09-21T05:47:52;10.40;48.90
2749;DHT22;1382;52.142;11.618;2022-09-21T05:50:33;10.40;49.00
2749;DHT22;1382;52.142;11.618;2022-09-21T05:55:54;10.50;49.40
2749;DHT22;1382;52.142;11.618;2022-09-21T05:58:28;10.40;49.40
2749;DHT22;1382;52.142;11.618;2022-09-21T06:01:08;10.50;49.80
2749;DHT22;1382;52.142;11.618;2022-09-21T06:03:40;10.50;50.10
2749;DHT22;1382;52.142;11.618;2022-09-21T06:06:09;10.50;50.30
2749;DHT22;1382;52.142;11.618;2022-09-21T06:08:35;10.50;50.80
2749;DHT22;1382;52.142;11.618;2022-09-21T06:11:02;10.60;51.20
2749;DHT22;1382;52.142;11.618;2022-09-21T06:13:29;10.60;51.40
2749;DHT22;1382;52.142;11.618;2022-09-21T06:15:56;10.60;51.90
2749;DHT22;1382;52.142;11.618;2022-09-21T06:18:23;10.70;52.20
2749;DHT22;1382;52.142;11.618;2022-09-21T06:20:50;10.80;52.40
2749;DHT22;1382;52.142;11.618;2022-09-21T06:23:18;10.80;52.60
2749;DHT22;1382;52.142;11.618;2022-09-21T06:25:50;10.90;52.90
2749;DHT22;1382;52.142;11.618;2022-09-21T06:28:23;11.00;53.30
2749;DHT22;1382;52.142;11.618;2022-09-21T06:30:51;11.00;53.20
2749;DHT22;1382;52.142;11.618;2022-09-21T06:33:19;11.10;53.90
2749;DHT22;1382;52.142;11.618;2022-09-21T06:35:51;11.20;54.60
2749;DHT22;1382;52.142;11.618;2022-09-21T06:38:20;11.30;55.00
2749;DHT22;1382;52.142;11.618;2022-09-21T06:40:47;11.40;54.90
2749;DHT22;1382;52.142;11.618;2022-09-21T06:43:14;11.50;55.00
2749;DHT22;1382;52.142;11.618;2022-09-21T06:45:41;11.60;55.20
2749;DHT22;1382;52.142;11.618;2022-09-21T06:48:08;11.70;55.40
2749;DHT22;1382;52.142;11.618;2022-09-21T06:50:35;11.80;55.40
2749;DHT22;1382;52.142;11.618;2022-09-21T06:53:02;11.90;55.60
2749;DHT22;1382;52.142;11.618;2022-09-21T06:55:31;12.10;55.90
2749;DHT22;1382;52.142;11.618;2022-09-21T06:58:02;12.20;56.20
2749;DHT22;1382;52.142;11.618;2022-09-21T07:00:30;12.30;56.60
2749;DHT22;1382;52.142;11.618;2022-09-21T07:02:56;12.40;56.20
2749;DHT22;1382;52.142;11.618;2022-09-21T07:05:24;12.50;56.00
2749;DHT22;1382;52.142;11.618;2022-09-21T07:07:55;12.70;56.20
2749;DHT22;1382;52.142;11.618;2022-09-21T07:10:22;12.80;56.70
2749;DHT22;1382;52.142;11.618;2022-09-21T07:12:51;13.00;56.60
2749;DHT22;1382;52.142;11.618;2022-09-21T07:15:17;13.10;57.20
2749;DHT22;1382;52.142;11.618;2022-09-21T07:17:44;13.20;57.40
2749;DHT22;1382;52.142;11.618;2022-09-21T07:20:17;13.30;58.10
2749;DHT22;1382;52.142;11.618;2022-09-21T07:22:44;13.40;57.60
2749;DHT22;1382;52.142;11.618;2022-09-21T07:25:12;13.60;57.70
2749;DHT22;1382;52.142;11.618;2022-09-21T07:27:39;13.70;57.50
2749;DHT22;1382;52.142;11.618;2022-09-21T07:30:09;13.80;57.40
2749;DHT22;1382;52.142;11.618;2022-09-21T07:32:36;14.00;58.20
2749;DHT22;1382;52.142;11.618;2022-09-21T07:35:03;14.10;58.00
2749;DHT22;1382;52.142;11.618;2022-09-21T07:37:30;14.20;57.30
2749;DHT22;1382;52.142;11.618;2022-09-21T07:39:57;14.30;57.90
2749;DHT22;1382;52.142;11.618;2022-09-21T07:42:24;14.40;57.50
2749;DHT22;1382;52.142;11.618;2022-09-21T07:44:51;14.50;57.30
2749;DHT22;1382;52.142;11.618;2022-09-21T07:47:31;14.60;57.00
2749;DHT22;1382;52.142;11.618;2022-09-21T07:49:57;14.80;56.50
2749;DHT22;1382;52.142;11.618;2022-09-21T07:52:24;15.00;56.70
2749;DHT22;1382;52.142;11.618;2022-09-21T07:54:51;15.10;55.20
2749;DHT22;1382;52.142;11.618;2022-09-21T07:57:18;15.30;55.60
2749;DHT22;1382;52.142;11.618;2022-09-21T07:59:45;15.50;56.10
2749;DHT22;1382;52.142;11.618;2022-09-21T08:02:12;15.50;55.80
2749;DHT22;1382;52.142;11.618;2022-09-21T08:04:40;15.70;55.90
2749;DHT22;1382;52.142;11.618;2022-09-21T08:07:07;15.80;55.40
2749;DHT22;1382;52.142;11.618;2022-09-21T08:09:34;16.00;55.00
2749;DHT22;1382;52.142;11.618;2022-09-21T08:12:01;16.10;55.20
2749;DHT22;1382;52.142;11.618;2022-09-21T08:14:28;16.20;55.00
2749;DHT22;1382;52.142;11.618;2022-09-21T08:16:54;16.40;54.50
2749;DHT22;1382;52.142;11.618;2022-09-21T08:19:21;16.50;54.40
2749;DHT22;1382;52.142;11.618;2022-09-21T08:21:49;16.70;54.40
2749;DHT22;1382;52.142;11.618;2022-09-21T08:24:23;16.80;54.10
2749;DHT22;1382;52.142;11.618;2022-09-21T08:26:49;17.00;54.10
2749;DHT22;1382;52.142;11.618;2022-09-21T08:29:16;17.10;53.30
2749;DHT22;1382;52.142;11.618;2022-09-21T08:31:43;17.30;53.80
2749;DHT22;1382;52.142;11.618;2022-09-21T08:34:10;17.40;53.60
2749;DHT22;1382;52.142;11.618;2022-09-21T08:36:37;17.50;53.40
2749;DHT22;1382;52.142;11.618;2022-09-21T08:39:07;17.60;53.40
2749;DHT22;1382;52.142;11.618;2022-09-21T08:42:01;17.90;53.60
2749;DHT22;1382;52.142;11.618;2022-09-21T08:44:35;17.90;53.30
2749;DHT22;1382;52.142;11.618;2022-09-21T08:47:08;17.90;53.30
2749;DHT22;1382;52.142;11.618;2022-09-21T08:49:39;18.10;52.90
2749;DHT22;1382;52.142;11.618;2022-09-21T08:52:11;18.30;52.80
2749;DHT22;1382;52.142;11.618;2022-09-21T08:54:48;18.40;52.50
2749;DHT22;1382;52.142;11.618;2022-09-21T08:57:18;18.70;53.00
2749;DHT22;1382;52.142;11.618;2022-09-21T08:59:47;18.70;52.60
2749;DHT22;1382;52.142;11.618;2022-09-21T09:05:23;18.90;52.20
2749;DHT22;1382;52.142;11.618;2022-09-21T09:08:07;19.10;51.90
2749;DHT22;1382;52.142;11.618;2022-09-21T09:10:40;19.00;51.90
2749;DHT22;1382;52.142;11.618;2022-09-21T09:13:32;19.30;52.10
2749;DHT22;1382;52.142;11.618;2022-09-21T09:16:09;19.40;51.90
2749;DHT22;1382;52.142;11.618;2022-09-21T09:18:43;19.50;52.20
2749;DHT22;1382;52.142;11.618;2022-09-21T09:21:15;19.50;51.90
2749;DHT22;1382;52.142;11.618;2022-09-21T09:24:00;19.60;51.70
2749;DHT22;1382;52.142;11.618;2022-09-21T09:26:34;19.90;52.50
2749;DHT22;1382;52.142;11.618;2022-09-21T09:29:10;19.90;51.20
2749;DHT22;1382;52.142;11.618;2022-09-21T09:31:39;19.90;50.30
2749;DHT22;1382;52.142;11.618;2022-09-21T09:34:10;20.20;50.70
2749;DHT22;1382;52.142;11.618;2022-09-21T09:36:43;20.20;50.70
2749;DHT22;1382;52.142;11.618;2022-09-21T09:39:26;20.30;50.20
2749;DHT22;1382;52.142;11.618;2022-09-21T09:42:05;20.40;50.50
2749;DHT22;1382;52.142;11.618;2022-09-21T09:44:59;20.50;50.10
2749;DHT22;1382;52.142;11.618;2022-09-21T09:47:35;20.70;50.80
2749;DHT22;1382;52.142;11.618;2022-09-21T09:50:10;20.90;50.40
2749;DHT22;1382;52.142;11.618;2022-09-21T09:52:38;20.90;50.60
2749;DHT22;1382;52.142;11.618;2022-09-21T09:55:14;21.00;49.60
2749;DHT22;1382;52.142;11.618;2022-09-21T09:57:45;21.20;49.20
2749;DHT22;1382;52.142;11.618;2022-09-21T10:00:14;21.10;49.50
2749;DHT22;1382;52.142;11.618;2022-09-21T10:02:46;21.30;50.00
2749;DHT22;1382;52.142;11.618;2022-09-21T10:05:20;21.50;49.20
2749;DHT22;1382;52.142;11.618;2022-09-21T10:07:47;21.50;49.60
2749;DHT22;1382;52.142;11.618;2022-09-21T10:10:25;21.60;50.50
2749;DHT22;1382;52.142;11.618;2022-09-21T10:12:55;21.90;49.00
2749;DHT22;1382;52.142;11.618;2022-09-21T10:15:23;21.80;47.80
2749;DHT22;1382;52.142;11.618;2022-09-21T10:17:57;21.80;48.40
2749;DHT22;1382;52.142;11.618;2022-09-21T10:20:27;22.00;49.00
2749;DHT22;1382;52.142;11.618;2022-09-21T10:22:55;21.90;47.50
2749;DHT22;1382;52.142;11.618;2022-09-21T10:25:22;22.20;48.00
2749;DHT22;1382;52.142;11.618;2022-09-21T10:27:53;22.20;48.00
2749;DHT22;1382;52.142;11.618;2022-09-21T10:30:32;22.30;49.00
2749;DHT22;1382;52.142;11.618;2022-09-21T10:33:00;22.40;47.60
2749;DHT22;1382;52.142;11.618;2022-09-21T10:35:28;22.50;47.30
2749;DHT22;1382;52.142;11.618;2022-09-21T10:38:09;22.60;46.60
2749;DHT22;1382;52.142;11.618;2022-09-21T10:40:37;22.60;47.50
2749;DHT22;1382;52.142;11.618;2022-09-21T10:43:22;22.70;48.10
2749;DHT22;1382;52.142;11.618;2022-09-21T10:45:54;22.90;46.60
2749;DHT22;1382;52.142;11.618;2022-09-21T10:48:23;23.00;46.20
2749;DHT22;1382;52.142;11.618;2022-09-21T10:50:52;23.10;47.90
2749;DHT22;1382;52.142;11.618;2022-09-21T10:53:24;23.20;45.10
2749;DHT22;1382;52.142;11.618;2022-09-21T10:55:57;23.30;44.10
2749;DHT22;1382;52.142;11.618;2022-09-21T10:59:11;23.50;43.70
2749;DHT22;1382;52.142;11.618;2022-09-21T11:01:42;23.50;44.20
2749;DHT22;1382;52.142;11.618;2022-09-21T11:04:14;23.60;47.50
2749;DHT22;1382;52.142;11.618;2022-09-21T11:06:45;23.80;44.90
2749;DHT22;1382;52.142;11.618;2022-09-21T11:09:17;23.80;44.10
2749;DHT22;1382;52.142;11.618;2022-09-21T11:11:51;23.90;43.10
2749;DHT22;1382;52.142;11.618;2022-09-21T11:14:34;24.00;43.40
2749;DHT22;1382;52.142;11.618;2022-09-21T11:17:14;24.10;42.90
2749;DHT22;1382;52.142;11.618;2022-09-21T11:19:48;24.10;45.20
2749;DHT22;1382;52.142;11.618;2022-09-21T11:22:23;24.10;46.60
2749;DHT22;1382;52.142;11.618;2022-09-21T11:24:57;24.10;45.90
2749;DHT22;1382;52.142;11.618;2022-09-21T11:27:29;24.30;42.80
2749;DHT22;1382;52.142;11.618;2022-09-21T11:30:01;24.30;44.20
2749;DHT22;1382;52.142;11.618;2022-09-21T11:32:36;24.20;42.80
2749;DHT22;1382;52.142;11.618;2022-09-21T11:35:17;24.20;42.30
2749;DHT22;1382;52.142;11.618;2022-09-21T11:37:50;24.20;44.90
2749;DHT22;1382;52.142;11.618;2022-09-21T11:40:52;24.30;44.80
2749;DHT22;1382;52.142;11.618;2022-09-21T11:43:41;24.20;43.50
2749;DHT22;1382;52.142;11.618;2022-09-21T11:46:21;24.10;41.30
2749;DHT22;1382;52.142;11.618;2022-09-21T11:49:11;24.00;40.30
2749;DHT22;1382;52.142;11.618;2022-09-21T11:51:51;23.90;40.60
2749;DHT22;1382;52.142;11.618;2022-09-21T11:54:49;23.90;40.00
2749;DHT22;1382;52.142;11.618;2022-09-21T11:57:21;23.90;40.30
2749;DHT22;1382;52.142;11.618;2022-09-21T12:00:07;23.90;39.70
2749;DHT22;1382;52.142;11.618;2022-09-21T12:03:02;23.90;39.80
2749;DHT22;1382;52.142;11.618;2022-09-21T12:05:37;23.90;38.80
2749;DHT22;1382;52.142;11.618;2022-09-21T12:08:22;23.70;38.80
2749;DHT22;1382;52.142;11.618;2022-09-21T12:11:00;23.70;37.70
2749;DHT22;1382;52.142;11.618;2022-09-21T12:13:34;23.70;40.20
2749;DHT22;1382;52.142;11.618;2022-09-21T12:16:09;23.70;40.30
2749;DHT22;1382;52.142;11.618;2022-09-21T12:18:43;23.90;39.70
2749;DHT22;1382;52.142;11.618;2022-09-21T12:21:19;23.90;39.50
2749;DHT22;1382;52.142;11.618;2022-09-21T12:23:49;23.70;39.60
2749;DHT22;1382;52.142;11.618;2022-09-21T12:26:19;23.80;39.60
2749;DHT22;1382;52.142;11.618;2022-09-21T12:28:50;23.80;40.00
2749;DHT22;1382;52.142;11.618;2022-09-21T12:31:22;24.00;41.10
2749;DHT22;1382;52.142;11.618;2022-09-21T12:33:55;23.90;40.00
2749;DHT22;1382;52.142;11.618;2022-09-21T12:36:28;24.00;41.80
2749;DHT22;1382;52.142;11.618;2022-09-21T12:39:00;24.10;41.00
2749;DHT22;1382;52.142;11.618;2022-09-21T12:41:36;24.40;43.20
2749;DHT22;1382;52.142;11.618;2022-09-21T12:44:15;24.40;40.30
2749;DHT22;1382;52.142;11.618;2022-09-21T12:46:45;24.40;37.80
2749;DHT22;1382;52.142;11.618;2022-09-21T12:49:21;24.40;39.40
2749;DHT22;1382;52.142;11.618;2022-09-21T12:51:52;24.60;39.60
2749;DHT22;1382;52.142;11.618;2022-09-21T12:54:27;24.80;40.30
2749;DHT22;1382;52.142;11.618;2022-09-21T12:57:02;25.00;41.10
2749;DHT22;1382;52.142;11.618;2022-09-21T12:59:57;24.90;38.60
2749;DHT22;1382;52.142;11.618;2022-09-21T13:02:32;25.00;38.70
2749;DHT22;1382;52.142;11.618;2022-09-21T13:05:10;25.00;38.50
2749;DHT22;1382;52.142;11.618;2022-09-21T13:08:01;25.20;39.50
2749;DHT22;1382;52.142;11.618;2022-09-21T13:10:40;25.20;38.00
2749;DHT22;1382;52.142;11.618;2022-09-21T13:13:24;25.30;38.40
2749;DHT22;1382;52.142;11.618;2022-09-21T13:15:52;25.40;39.70
2749;DHT22;1382;52.142;11.618;2022-09-21T13:18:23;25.50;39.30
2749;DHT22;1382;52.142;11.618;2022-09-21T13:20:52;25.60;41.20
2749;DHT22;1382;52.142;11.618;2022-09-21T13:23:23;25.80;37.30
2749;DHT22;1382;52.142;11.618;2022-09-21T13:25:59;25.80;37.70
2749;DHT22;1382;52.142;11.618;2022-09-21T13:28:58;25.90;36.50
2749;DHT22;1382;52.142;11.618;2022-09-21T13:31:42;25.80;37.00
2749;DHT22;1382;52.142;11.618;2022-09-21T13:34:23;25.90;37.10
2749;DHT22;1382;52.142;11.618;2022-09-21T13:43:21;25.90;36.50
2749;DHT22;1382;52.142;11.618;2022-09-21T13:45:54;25.90;37.00
2749;DHT22;1382;52.142;11.618;2022-09-21T13:48:25;25.80;38.90
2749;DHT22;1382;52.142;11.618;2022-09-21T13:50:55;25.80;38.60
2749;DHT22;1382;52.142;11.618;2022-09-21T13:53:24;25.70;36.80
2749;DHT22;1382;52.142;11.618;2022-09-21T13:55:54;25.70;38.00
2749;DHT22;1382;52.142;11.618;2022-09-21T13:58:28;25.70;38.20
2749;DHT22;1382;52.142;11.618;2022-09-21T14:00:59;25.70;36.60
2749;DHT22;1382;52.142;11.618;2022-09-21T14:03:32;25.70;39.10
2749;DHT22;1382;52.142;11.618;2022-09-21T14:06:02;25.60;38.00
2749;DHT22;1382;52.142;11.618;2022-09-21T14:08:34;25.60;35.60
2749;DHT22;1382;52.142;11.618;2022-09-21T14:11:04;25.50;34.20
2749;DHT22;1382;52.142;11.618;2022-09-21T14:13:35;25.50;34.30
2749;DHT22;1382;52.142;11.618;2022-09-21T14:16:49;25.40;33.40
2749;DHT22;1382;52.142;11.618;2022-09-21T14:22:41;25.20;35.90
2749;DHT22;1382;52.142;11.618;2022-09-21T14:25:23;25.10;36.70
2749;DHT22;1382;52.142;11.618;2022-09-21T14:27:50;25.10;37.10
2749;DHT22;1382;52.142;11.618;2022-09-21T14:30:22;25.10;37.10
2749;DHT22;1382;52.142;11.618;2022-09-21T14:32:56;25.20;39.00
2749;DHT22;1382;52.142;11.618;2022-09-21T14:35:31;25.10;39.90
2749;DHT22;1382;52.142;11.618;2022-09-21T14:38:02;25.10;38.50
2749;DHT22;1382;52.142;11.618;2022-09-21T14:40:32;25.30;40.20
2749;DHT22;1382;52.142;11.618;2022-09-21T14:43:06;25.30;39.50
2749;DHT22;1382;52.142;11.618;2022-09-21T14:45:44;25.40;38.40
2749;DHT22;1382;52.142;11.618;2022-09-21T14:48:18;25.30;38.30
2749;DHT22;1382;52.142;11.618;2022-09-21T14:50:53;25.30;40.10
2749;DHT22;1382;52.142;11.618;2022-09-21T14:53:32;25.30;39.80
2749;DHT22;1382;52.142;11.618;2022-09-21T14:59:02;25.20;39.70
2749;DHT22;1382;52.142;11.618;2022-09-21T15:01:37;25.20;38.50
2749;DHT22;1382;52.142;11.618;2022-09-21T15:04:28;25.30;39.00
2749;DHT22;1382;52.142;11.618;2022-09-21T15:07:06;25.20;39.40
2749;DHT22;1382;52.142;11.618;2022-09-21T15:09:52;25.20;38.20
2749;DHT22;1382;52.142;11.618;2022-09-21T15:12:27;25.00;38.50
2749;DHT22;1382;52.142;11.618;2022-09-21T15:15:19;25.00;38.30
2749;DHT22;1382;52.142;11.618;2022-09-21T15:17:54;24.90;39.30
2749;DHT22;1382;52.142;11.618;2022-09-21T15:20:26;24.80;39.30
2749;DHT22;1382;52.142;11.618;2022-09-21T15:22:54;24.80;40.50
2749;DHT22;1382;52.142;11.618;2022-09-21T15:25:22;24.70;39.80
2749;DHT22;1382;52.142;11.618;2022-09-21T15:27:49;24.60;39.90
2749;DHT22;1382;52.142;11.618;2022-09-21T15:30:21;24.60;39.80
2749;DHT22;1382;52.142;11.618;2022-09-21T15:32:53;24.50;39.20
2749;DHT22;1382;52.142;11.618;2022-09-21T15:35:22;24.40;38.80
2749;DHT22;1382;52.142;11.618;2022-09-21T15:37:50;24.30;39.30
2749;DHT22;1382;52.142;11.618;2022-09-21T15:40:19;24.30;39.40
2749;DHT22;1382;52.142;11.618;2022-09-21T15:42:58;24.20;40.30
2749;DHT22;1382;52.142;11.618;2022-09-21T15:45:26;24.20;39.60
2749;DHT22;1382;52.142;11.618;2022-09-21T15:47:55;24.10;39.70
2749;DHT22;1382;52.142;11.618;2022-09-21T15:50:22;24.10;39.10
2749;DHT22;1382;52.142;11.618;2022-09-21T15:52:52;24.00;38.60
2749;DHT22;1382;52.142;11.618;2022-09-21T15:55:21;24.00;39.00
2749;DHT22;1382;52.142;11.618;2022-09-21T15:57:49;24.00;38.60
2749;DHT22;1382;52.142;11.618;2022-09-21T16:00:24;24.00;37.90
2749;DHT22;1382;52.142;11.618;2022-09-21T16:03:06;24.00;38.50
2749;DHT22;1382;52.142;11.618;2022-09-21T16:05:45;24.00;38.30
2749;DHT22;1382;52.142;11.618;2022-09-21T16:08:30;24.00;38.70
2749;DHT22;1382;52.142;11.618;2022-09-21T16:11:12;24.00;39.90
2749;DHT22;1382;52.142;11.618;2022-09-21T16:13:41;24.20;40.30
2749;DHT22;1382;52.142;11.618;2022-09-21T16:16:11;24.00;40.00
2749;DHT22;1382;52.142;11.618;2022-09-21T16:18:54;24.10;40.00
2749;DHT22;1382;52.142;11.618;2022-09-21T16:21:23;24.10;39.90
2749;DHT22;1382;52.142;11.618;2022-09-21T16:23:51;24.10;39.20
2749;DHT22;1382;52.142;11.618;2022-09-21T16:26:23;24.30;39.60
2749;DHT22;1382;52.142;11.618;2022-09-21T16:29:18;24.10;39.40
2749;DHT22;1382;52.142;11.618;2022-09-21T16:31:45;24.20;40.10
2749;DHT22;1382;52.142;11.618;2022-09-21T16:34:28;24.10;39.00
2749;DHT22;1382;52.142;11.618;2022-09-21T16:36:55;24.10;39.00